createdAt,value
2018-10-09T00:01:11.530Z,54.30
2018-10-09T00:03:42.534Z,54.07
2018-10-09T00:06:12.981Z,51.73
2018-10-09T00:08:48.145Z,53.87
2018-10-09T00:11:21.681Z,57.53
2018-10-09T00:13:58.349Z,50.03
2018-10-09T00:16:34.046Z,50.90
2018-10-09T00:19:07.932Z,48.00
2018-10-09T00:21:38.753Z,47.27
2018-10-09T00:24:09.573Z,73.87
2018-10-09T00:26:40.430Z,41.47
2018-10-09T00:29:10.137Z,46.53
2018-10-09T00:31:42.905Z,45.53
2018-10-09T00:34:12.705Z,45.77
2018-10-09T00:36:50.685Z,42.63
2018-10-09T00:39:21.991Z,51.00
2018-10-09T00:41:55.186Z,44.03
2018-10-09T00:44:29.517Z,42.97
2018-10-09T00:47:09.731Z,50.57
2018-10-09T00:49:47.137Z,48.13
2018-10-09T00:52:18.093Z,49.43
2018-10-09T00:57:37.809Z,47.00
2018-10-09T01:00:08.463Z,53.40
2018-10-09T01:02:47.761Z,52.57
2018-10-09T01:05:28.999Z,53.67
2018-10-09T01:08:03.566Z,59.07
2018-10-09T01:10:36.285Z,63.10
2018-10-09T01:13:12.210Z,54.23
2018-10-09T01:15:43.087Z,54.03
2018-10-09T01:18:17.589Z,41.07
2018-10-09T01:20:47.422Z,43.20
2018-10-09T01:23:18.018Z,50.90
2018-10-09T01:25:48.660Z,49.63
2018-10-09T01:28:21.894Z,56.10
2018-10-09T01:30:51.770Z,50.10
2018-10-09T01:33:22.406Z,45.03
2018-10-09T01:35:52.254Z,55.07
2018-10-09T01:38:22.162Z,55.17
2018-10-09T01:40:57.514Z,49.33
2018-10-09T01:43:28.538Z,37.10
2018-10-09T01:45:58.837Z,49.17
2018-10-09T01:48:28.946Z,50.43
2018-10-09T01:56:23.021Z,41.77
2018-10-09T01:58:56.221Z,41.57
2018-10-09T02:01:30.606Z,38.00
2018-10-09T02:04:01.982Z,49.93
2018-10-09T02:06:32.022Z,61.80
2018-10-09T02:09:04.618Z,49.13
2018-10-09T02:11:40.969Z,46.53
2018-10-09T02:14:13.801Z,51.40
2018-10-09T02:16:44.326Z,31.17
2018-10-09T02:19:14.954Z,32.00
2018-10-09T02:21:44.734Z,42.43
2018-10-09T02:24:14.322Z,43.57
2018-10-09T02:26:47.842Z,51.50
2018-10-09T02:29:18.730Z,52.70
2018-10-09T02:31:49.386Z,54.17
2018-10-09T02:34:19.974Z,55.03
2018-10-09T02:36:49.750Z,45.27
2018-10-09T02:39:20.361Z,44.03
2018-10-09T02:41:59.485Z,43.63
2018-10-09T02:44:28.993Z,44.70
2018-10-09T02:46:58.757Z,45.27
2018-10-09T02:49:28.682Z,66.20
2018-10-09T02:51:59.158Z,42.90
2018-10-09T02:54:30.038Z,48.57
2018-10-09T02:56:59.930Z,54.37
2018-10-09T02:59:30.773Z,62.40
2018-10-09T03:02:02.645Z,69.07
2018-10-09T03:04:33.515Z,80.90
2018-10-09T03:07:03.640Z,107.33
2018-10-09T03:09:34.538Z,86.53
2018-10-09T03:12:07.692Z,91.30
2018-10-09T03:14:38.645Z,112.73
2018-10-09T03:17:09.102Z,91.97
2018-10-09T03:19:39.002Z,71.53
2018-10-09T03:22:09.181Z,58.67
2018-10-09T03:24:39.022Z,49.13
2018-10-09T03:27:09.839Z,41.20
2018-10-09T03:29:43.745Z,47.33
2018-10-09T03:32:13.245Z,59.73
2018-10-09T03:34:50.473Z,52.23
2018-10-09T03:37:20.247Z,49.57
2018-10-09T03:39:50.093Z,43.27
2018-10-09T03:42:19.585Z,47.60
2018-10-09T03:44:50.077Z,53.30
2018-10-09T03:47:20.865Z,45.17
2018-10-09T03:49:50.657Z,47.97
2018-10-09T03:52:20.345Z,44.20
2018-10-09T03:54:51.213Z,44.90
2018-10-09T03:57:20.999Z,56.40
2018-10-09T03:59:50.829Z,53.33
2018-10-09T04:02:22.457Z,41.90
2018-10-09T04:04:57.761Z,48.90
2018-10-09T04:07:28.785Z,44.87
2018-10-09T04:09:59.677Z,41.57
2018-10-09T04:12:29.536Z,41.30
2018-10-09T04:14:59.321Z,39.30
2018-10-09T04:17:29.301Z,44.60
2018-10-09T04:20:00.145Z,38.70
2018-10-09T04:22:31.929Z,46.20
2018-10-09T04:25:01.841Z,37.30
2018-10-09T04:27:33.700Z,45.50
2018-10-09T04:30:04.709Z,45.20
2018-10-09T04:32:35.229Z,45.70
2018-10-09T04:35:05.121Z,43.00
2018-10-09T04:37:38.041Z,46.80
2018-10-09T04:40:07.937Z,43.13
2018-10-09T04:42:41.969Z,39.10
2018-10-09T04:45:12.737Z,36.15
2018-10-09T04:47:42.639Z,39.67
2018-10-09T04:50:15.929Z,45.07
2018-10-09T04:52:45.716Z,35.53
2018-10-09T04:55:15.585Z,43.67
2018-10-09T04:57:46.473Z,40.87
2018-10-09T05:00:16.469Z,54.80
2018-10-09T05:02:49.501Z,58.98
2018-10-09T05:05:19.469Z,93.13
2018-10-09T05:07:50.513Z,102.90
2018-10-09T05:10:24.257Z,76.47
2018-10-09T05:12:53.925Z,92.63
2018-10-09T05:15:24.993Z,65.37
2018-10-09T05:17:54.854Z,64.00
2018-10-09T05:20:24.774Z,69.80
2018-10-09T05:22:56.593Z,69.40
2018-10-09T05:25:27.155Z,65.00
2018-10-09T05:27:56.893Z,82.10
2018-10-09T05:30:27.793Z,95.63
2018-10-09T05:33:03.765Z,89.73
2018-10-09T05:35:33.476Z,130.20
2018-10-09T05:38:11.121Z,113.80
2018-10-09T05:40:41.896Z,52.77
2018-10-09T05:43:17.377Z,47.57
2018-10-09T05:45:52.181Z,50.23
2018-10-09T05:48:25.174Z,70.03
2018-10-09T05:50:58.080Z,48.80
2018-10-09T05:53:28.681Z,42.50
2018-10-09T05:56:01.465Z,44.30
2018-10-09T05:58:39.063Z,46.23
2018-10-09T06:01:10.813Z,45.33
2018-10-09T06:03:44.245Z,49.73
2018-10-09T06:06:13.709Z,49.60
2018-10-09T06:08:43.433Z,38.20
2018-10-09T06:11:18.833Z,43.50
2018-10-09T06:13:56.281Z,37.23
2018-10-09T06:16:27.097Z,42.80
2018-10-09T06:18:56.897Z,58.43
2018-10-09T06:21:27.734Z,60.80
2018-10-09T06:23:57.561Z,60.50
2018-10-09T06:26:27.361Z,74.47
2018-10-09T06:28:57.193Z,69.73
2018-10-09T06:31:27.997Z,62.27
2018-10-09T06:33:57.812Z,69.47
2018-10-09T06:36:27.633Z,61.90
2018-10-09T06:38:57.477Z,62.27
2018-10-09T06:41:28.314Z,63.30
2018-10-09T06:44:05.270Z,68.13
2018-10-09T06:46:34.987Z,67.07
2018-10-09T06:49:05.850Z,56.60
2018-10-09T06:51:35.756Z,65.63
2018-10-09T06:54:05.794Z,61.27
2018-10-09T06:56:36.493Z,65.63
2018-10-09T06:59:07.281Z,63.40
2018-10-09T07:01:39.145Z,67.90
2018-10-09T07:04:09.919Z,63.57
2018-10-09T07:06:39.741Z,73.70
2018-10-09T07:09:11.137Z,69.40
2018-10-09T07:11:42.768Z,71.10
2018-10-09T07:14:12.237Z,67.60
2018-10-09T07:16:45.073Z,67.03
2018-10-09T07:19:15.943Z,71.10
2018-10-09T07:21:45.777Z,80.77
2018-10-09T07:24:15.665Z,80.13
2018-10-09T07:26:46.465Z,78.37
2018-10-09T07:29:16.305Z,87.23
2018-10-09T07:31:46.137Z,86.07
2018-10-09T07:34:16.970Z,88.17
2018-10-09T07:36:48.769Z,86.07
2018-10-09T07:39:18.553Z,95.07
2018-10-09T07:41:56.389Z,91.33
2018-10-09T07:44:26.067Z,95.03
2018-10-09T07:46:56.465Z,94.00
2018-10-09T07:49:26.145Z,85.40
2018-10-09T07:51:57.008Z,101.00
2018-10-09T07:54:26.814Z,93.27
2018-10-09T07:56:56.674Z,94.87
2018-10-09T07:59:26.386Z,106.27
2018-10-09T08:01:56.213Z,117.27
2018-10-09T08:04:29.957Z,134.50
2018-10-09T08:06:59.789Z,121.40
2018-10-09T08:09:29.598Z,112.97
2018-10-09T08:11:59.385Z,131.27
2018-10-09T08:14:32.510Z,153.13
2018-10-09T08:17:02.462Z,128.17
2018-10-09T08:19:39.761Z,142.93
2018-10-09T08:22:11.590Z,121.97
2018-10-09T08:24:41.470Z,128.33
2018-10-09T08:27:11.069Z,122.50
2018-10-09T08:29:45.077Z,124.37
2018-10-09T08:32:16.882Z,118.33
2018-10-09T08:34:46.625Z,122.20
2018-10-09T08:37:23.142Z,112.80
2018-10-09T08:39:53.729Z,103.53
2018-10-09T08:42:23.421Z,117.93
2018-10-09T08:44:53.269Z,95.77
2018-10-09T08:47:23.081Z,86.60
2018-10-09T08:49:58.433Z,79.23
2018-10-09T08:52:28.201Z,64.40
2018-10-09T08:54:58.046Z,52.97
2018-10-09T08:57:27.702Z,52.63
2018-10-09T08:59:57.361Z,42.93
2018-10-09T09:02:27.130Z,44.93
2018-10-09T09:05:02.721Z,47.03
2018-10-09T09:07:40.590Z,43.40
2018-10-09T09:10:10.241Z,47.07
2018-10-09T09:12:41.102Z,35.27
2018-10-09T09:17:51.226Z,33.83
2018-10-09T09:20:24.852Z,36.40
2018-10-09T09:22:56.786Z,35.30
2018-10-09T09:25:26.758Z,30.70
2018-10-09T09:27:58.603Z,35.00
2018-10-09T09:30:38.689Z,37.87
2018-10-09T09:33:10.191Z,33.30
2018-10-09T09:35:40.921Z,34.77
2018-10-09T09:38:10.505Z,37.23
2018-10-09T09:40:43.826Z,35.00
2018-10-09T09:43:14.817Z,33.07
2018-10-09T09:45:47.836Z,33.03
2018-10-09T09:48:18.549Z,32.20
2018-10-09T09:50:49.421Z,27.90
2018-10-09T09:53:20.239Z,34.77
2018-10-09T09:55:53.855Z,30.63
2018-10-09T09:58:23.694Z,34.57
2018-10-09T10:00:59.065Z,29.80
2018-10-09T10:03:29.878Z,33.17
2018-10-09T10:06:00.677Z,33.27
2018-10-09T10:08:31.533Z,29.80
2018-10-09T10:11:01.418Z,31.07
2018-10-09T10:13:35.882Z,30.13
2018-10-09T10:16:05.661Z,26.90
2018-10-09T10:18:38.846Z,26.33
2018-10-09T10:21:17.745Z,26.00
2018-10-09T10:23:52.661Z,22.73
2018-10-09T10:26:23.613Z,21.77
2018-10-09T10:28:53.166Z,22.20
2018-10-09T10:31:22.965Z,20.40
2018-10-09T10:33:59.265Z,23.97
2018-10-09T10:36:30.969Z,21.70
2018-10-09T10:39:06.390Z,27.03
2018-10-09T10:41:36.118Z,21.17
2018-10-09T10:44:10.974Z,18.07
2018-10-09T10:46:41.965Z,19.73
2018-10-09T10:49:17.599Z,25.13
2018-10-09T10:51:48.262Z,34.70
2018-10-09T10:54:18.046Z,17.47
2018-10-09T10:56:48.898Z,18.43
2018-10-09T10:59:18.722Z,16.10
2018-10-09T11:01:48.556Z,18.30
2018-10-09T11:04:18.333Z,20.07
2018-10-09T11:06:51.241Z,16.30
2018-10-09T11:09:21.021Z,18.57
2018-10-09T11:11:51.669Z,17.70
2018-10-09T11:14:25.677Z,21.37
2018-10-09T11:16:55.493Z,17.20
2018-10-09T11:19:25.263Z,15.70
2018-10-09T11:21:55.039Z,15.93
2018-10-09T11:24:24.810Z,23.33
2018-10-09T11:26:57.709Z,18.47
2018-10-09T11:29:30.713Z,17.67
2018-10-09T11:32:01.535Z,24.57
2018-10-09T11:34:32.365Z,15.63
2018-10-09T11:37:02.165Z,15.90
2018-10-09T11:39:31.986Z,22.47
2018-10-09T11:42:04.981Z,14.20
2018-10-09T11:44:35.813Z,15.20
2018-10-09T11:47:05.673Z,15.20
2018-10-09T11:49:35.433Z,14.53
2018-10-09T11:52:05.249Z,12.90
2018-10-09T11:54:36.189Z,17.10
2018-10-09T11:57:05.997Z,16.67
2018-10-09T11:59:41.066Z,13.70
2018-10-09T12:02:14.309Z,13.00
2018-10-09T12:04:47.717Z,14.40
2018-10-09T12:07:17.533Z,15.27
2018-10-09T12:09:47.317Z,13.57
2018-10-09T12:12:17.085Z,13.43
2018-10-09T12:14:46.965Z,11.60
2018-10-09T12:17:16.745Z,12.23
2018-10-09T12:19:46.529Z,17.53
2018-10-09T12:22:16.763Z,14.97
2018-10-09T12:24:52.293Z,17.10
2018-10-09T12:27:22.157Z,21.33
2018-10-09T12:29:52.068Z,14.50
2018-10-09T12:32:21.841Z,29.97
2018-10-09T12:34:51.480Z,12.53
2018-10-09T12:37:21.197Z,13.57
2018-10-09T12:39:51.005Z,13.10
2018-10-09T12:42:21.665Z,12.60
2018-10-09T12:44:52.369Z,18.20
2018-10-09T12:47:25.277Z,14.10
2018-10-09T12:50:08.213Z,26.37
2018-10-09T12:52:45.295Z,23.57
2018-10-09T12:55:21.480Z,14.20
2018-10-09T12:57:57.845Z,13.77
2018-10-09T13:00:29.685Z,12.23
2018-10-09T13:03:03.228Z,11.37
2018-10-09T13:05:32.957Z,12.60
2018-10-09T13:08:02.813Z,14.17
2018-10-09T13:10:32.957Z,11.23
2018-10-09T13:13:04.617Z,12.17
2018-10-09T13:15:34.405Z,11.80
2018-10-09T13:18:06.200Z,13.83
2018-10-09T13:20:42.840Z,11.53
2018-10-09T13:23:13.605Z,19.53
2018-10-09T13:25:43.785Z,14.43
2018-10-09T13:28:13.660Z,21.53
2018-10-09T13:30:43.484Z,15.80
2018-10-09T13:33:13.297Z,11.90
2018-10-09T13:35:44.121Z,13.53
2018-10-09T13:38:14.762Z,12.87
2018-10-09T13:40:45.461Z,11.33
2018-10-09T13:43:21.608Z,14.33
2018-10-09T13:45:51.292Z,15.93
2018-10-09T13:48:21.157Z,12.07
2018-10-09T13:50:50.984Z,10.30
2018-10-09T13:53:28.756Z,10.40
2018-10-09T13:56:04.785Z,9.67
2018-10-09T13:58:34.668Z,11.13
2018-10-09T14:01:04.473Z,10.10
2018-10-09T14:03:37.852Z,10.20
2018-10-09T14:06:08.719Z,11.73
2018-10-09T14:08:43.196Z,9.80
2018-10-09T14:11:13.185Z,12.97
2018-10-09T14:13:44.049Z,12.10
2018-10-09T14:16:17.137Z,11.73
2018-10-09T14:18:48.713Z,11.73
2018-10-09T14:21:18.553Z,11.63
2018-10-09T14:23:48.429Z,11.43
2018-10-09T14:26:19.288Z,11.10
2018-10-09T14:28:49.113Z,11.37
2018-10-09T14:31:18.977Z,11.07
2018-10-09T14:33:49.717Z,11.60
2018-10-09T14:36:19.656Z,12.10
2018-10-09T14:38:49.444Z,17.37
2018-10-09T14:41:19.264Z,10.23
2018-10-09T14:43:49.035Z,11.00
2018-10-09T14:46:20.837Z,10.03
2018-10-09T14:48:56.305Z,10.30
2018-10-09T14:51:25.961Z,9.70
2018-10-09T14:53:55.681Z,17.57
2018-10-09T14:56:25.564Z,9.50
2018-10-09T14:58:55.312Z,9.03
2018-10-09T15:01:25.160Z,8.30
2018-10-09T15:03:55.011Z,11.40
2018-10-09T15:06:24.848Z,9.00
2018-10-09T15:08:58.217Z,14.73
2018-10-09T15:11:29.893Z,9.53
2018-10-09T15:13:59.332Z,8.27
2018-10-09T15:16:29.828Z,8.87
2018-10-09T15:18:59.272Z,9.80
2018-10-09T15:21:29.170Z,10.10
2018-10-09T15:23:58.916Z,13.30
2018-10-09T15:26:28.769Z,12.40
2018-10-09T15:28:58.857Z,14.20
2018-10-09T15:31:28.726Z,14.37
2018-10-09T15:33:58.524Z,11.90
2018-10-09T15:36:29.361Z,14.47
2018-10-09T15:39:02.437Z,11.20
2018-10-09T15:41:32.319Z,10.30
2018-10-09T15:44:07.781Z,14.90
2018-10-09T15:46:37.565Z,19.90
2018-10-09T15:49:08.108Z,13.00
2018-10-09T15:51:41.884Z,11.93
2018-10-09T15:54:11.439Z,13.57
2018-10-09T15:56:43.289Z,11.87
2018-10-09T15:59:13.017Z,12.67
2018-10-09T16:01:43.813Z,16.00
2018-10-09T16:04:38.241Z,15.03
2018-10-09T16:07:08.925Z,11.30
2018-10-09T16:09:42.457Z,13.57
2018-10-09T16:12:22.789Z,15.10
2018-10-09T16:14:57.829Z,15.87
2018-10-09T16:17:31.141Z,14.30
2018-10-09T16:20:00.661Z,17.83
2018-10-09T16:22:31.422Z,17.10
2018-10-09T16:25:00.941Z,14.43
2018-10-09T16:27:30.742Z,16.90
2018-10-09T16:30:00.612Z,18.00
2018-10-09T16:32:30.516Z,18.00
2018-10-09T16:35:07.165Z,23.77
2018-10-09T16:37:36.964Z,20.23
2018-10-09T16:40:06.748Z,18.57
2018-10-09T16:42:40.048Z,15.90
2018-10-09T16:45:09.627Z,19.10
2018-10-09T16:47:39.108Z,19.33
2018-10-09T16:50:08.639Z,20.00
2018-10-09T16:52:42.231Z,19.77
2018-10-09T16:55:15.419Z,21.07
2018-10-09T16:57:44.939Z,21.73
2018-10-09T17:00:14.523Z,24.13
2018-10-09T17:02:44.955Z,20.23
2018-10-09T17:05:20.551Z,21.53
2018-10-09T17:07:50.443Z,17.07
2018-10-09T17:10:23.715Z,21.60
2018-10-09T17:12:54.547Z,22.30
2018-10-09T17:15:25.615Z,22.23
2018-10-09T17:17:55.194Z,21.00
2018-10-09T17:20:28.147Z,30.47
2018-10-09T17:22:58.706Z,18.83
2018-10-09T17:25:28.455Z,18.43
2018-10-09T17:27:59.632Z,19.37
2018-10-09T17:30:29.283Z,19.13
2018-10-09T17:33:00.066Z,20.53
2018-10-09T17:35:29.840Z,20.63
2018-10-09T17:38:00.459Z,22.93
2018-10-09T17:40:30.160Z,24.80
2018-10-09T17:43:06.552Z,20.10
2018-10-09T17:45:37.596Z,23.13
2018-10-09T17:48:07.993Z,22.50
2018-10-09T17:50:42.672Z,22.90
2018-10-09T17:53:13.376Z,23.73
2018-10-09T17:55:43.200Z,21.97
2018-10-09T17:58:13.077Z,24.73
2018-10-09T18:00:42.949Z,19.80
2018-10-09T18:03:12.638Z,26.03
2018-10-09T18:05:46.037Z,31.40
2018-10-09T18:08:22.540Z,28.20
2018-10-09T18:10:55.645Z,29.77
2018-10-09T18:13:26.533Z,20.30
2018-10-09T18:15:56.480Z,37.13
2018-10-09T18:18:27.049Z,26.10
2018-10-09T18:20:58.605Z,27.57
2018-10-09T18:23:28.439Z,28.50
2018-10-09T18:25:58.345Z,26.33
2018-10-09T18:28:28.885Z,23.30
2018-10-09T18:30:58.727Z,25.33
2018-10-09T18:33:29.341Z,31.37
2018-10-09T18:35:58.916Z,26.00
2018-10-09T18:38:30.461Z,30.80
2018-10-09T18:41:01.052Z,26.10
2018-10-09T18:43:30.528Z,29.13
2018-10-09T18:46:03.305Z,33.23
2018-10-09T18:48:33.256Z,29.97
2018-10-09T18:51:04.264Z,26.50
2018-10-09T18:53:35.105Z,30.27
2018-10-09T18:56:05.009Z,28.70
2018-10-09T18:58:36.095Z,35.00
2018-10-09T19:01:07.989Z,29.53
2018-10-09T19:03:39.645Z,25.77
2018-10-09T19:06:11.536Z,30.63
2018-10-09T19:08:42.128Z,29.00
2018-10-09T19:11:12.013Z,28.43
2018-10-09T19:13:45.209Z,26.67
2018-10-09T19:16:14.884Z,29.33
2018-10-09T19:18:45.353Z,25.10
2018-10-09T19:21:16.125Z,31.63
2018-10-09T19:23:46.988Z,29.00
2018-10-09T19:26:17.834Z,26.77
2018-10-09T19:28:49.449Z,27.50
2018-10-09T19:31:19.320Z,30.80
2018-10-09T19:33:52.756Z,34.30
2018-10-09T19:36:22.721Z,31.27
2018-10-09T19:38:53.617Z,32.10
2018-10-09T19:41:23.557Z,33.73
2018-10-09T19:43:55.385Z,34.00
2018-10-09T19:46:31.676Z,39.87
2018-10-09T19:49:01.579Z,32.27
2018-10-09T19:51:32.638Z,31.07
2018-10-09T19:54:02.180Z,28.30
2018-10-09T19:56:32.301Z,30.77
2018-10-09T19:59:04.168Z,32.00
2018-10-09T20:01:37.705Z,30.10
2018-10-09T20:04:07.365Z,33.07
2018-10-09T20:06:38.152Z,40.43
2018-10-09T20:09:11.704Z,34.23
2018-10-09T20:11:41.644Z,34.87
2018-10-09T20:14:12.939Z,36.47
2018-10-09T20:16:43.864Z,34.77
2018-10-09T20:19:14.428Z,34.80
2018-10-09T20:21:44.172Z,34.23
2018-10-09T20:24:15.073Z,45.13
2018-10-09T20:26:44.917Z,39.87
2018-10-09T20:29:16.770Z,40.40
2018-10-09T20:31:46.769Z,35.03
2018-10-09T20:34:16.593Z,35.70
2018-10-09T20:36:48.502Z,34.73
2018-10-09T20:39:20.217Z,36.83
2018-10-09T20:41:50.138Z,31.80
2018-10-09T20:44:23.252Z,37.17
2018-10-09T20:46:53.117Z,38.70
2018-10-09T20:49:23.037Z,34.40
2018-10-09T20:51:53.985Z,37.60
2018-10-09T20:54:24.927Z,28.40
2018-10-09T20:56:54.825Z,35.83
2018-10-09T20:59:29.074Z,33.10
2018-10-09T21:02:00.014Z,30.97
2018-10-09T21:04:31.251Z,31.73
2018-10-09T21:07:04.545Z,33.47
2018-10-09T21:09:35.033Z,37.47
2018-10-09T21:12:04.813Z,32.53
2018-10-09T21:14:35.725Z,32.00
2018-10-09T21:17:05.754Z,32.80
2018-10-09T21:19:36.625Z,31.97
2018-10-09T21:22:07.559Z,30.10
2018-10-09T21:24:38.457Z,39.73
2018-10-09T21:27:10.104Z,32.50
2018-10-09T21:29:39.759Z,30.00
2018-10-09T21:32:09.565Z,34.13
2018-10-09T21:34:39.268Z,32.53
2018-10-09T21:37:09.956Z,31.30
2018-10-09T21:39:39.809Z,33.90
2018-10-09T21:42:09.693Z,30.63
2018-10-09T21:44:39.393Z,33.33
2018-10-09T21:47:09.985Z,27.87
2018-10-09T21:49:39.493Z,33.57
2018-10-09T21:52:10.281Z,37.50
2018-10-09T21:54:44.221Z,28.67
2018-10-09T21:57:14.984Z,32.70
2018-10-09T21:59:44.900Z,34.23
2018-10-09T22:02:19.746Z,40.63
2018-10-09T22:04:50.247Z,33.20
2018-10-09T22:07:23.685Z,33.57
2018-10-09T22:09:53.580Z,41.53
2018-10-09T22:12:25.623Z,37.20
2018-10-09T22:14:55.280Z,35.90
2018-10-09T22:17:25.180Z,40.63
2018-10-09T22:19:55.120Z,35.93
2018-10-09T22:22:26.184Z,48.77
2018-10-09T22:24:57.128Z,40.37
2018-10-09T22:27:30.540Z,36.37
2018-10-09T22:30:02.212Z,40.77
2018-10-09T22:32:34.039Z,41.70
2018-10-09T22:35:05.782Z,43.43
2018-10-09T22:37:36.636Z,41.53
2018-10-09T22:40:08.092Z,43.37
2018-10-09T22:42:41.435Z,47.17
2018-10-09T22:45:11.724Z,41.50
2018-10-09T22:47:41.473Z,46.13
2018-10-09T22:50:11.539Z,51.43
2018-10-09T22:52:44.415Z,43.80
2018-10-09T22:55:14.156Z,51.20
2018-10-09T22:57:49.460Z,40.87
2018-10-09T23:00:20.508Z,42.57
2018-10-09T23:02:50.223Z,41.57
2018-10-09T23:05:24.615Z,44.40
2018-10-09T23:07:55.648Z,49.50
2018-10-09T23:10:29.908Z,48.47
2018-10-09T23:12:59.795Z,45.27
2018-10-09T23:15:29.571Z,58.57
2018-10-09T23:17:59.289Z,59.53
2018-10-09T23:20:30.192Z,53.30
2018-10-09T23:23:00.852Z,52.77
2018-10-09T23:25:30.467Z,61.70
2018-10-09T23:28:00.084Z,49.23
2018-10-09T23:30:31.976Z,55.13
2018-10-09T23:33:02.868Z,49.83
2018-10-09T23:35:33.890Z,55.50
2018-10-09T23:38:05.684Z,51.37
2018-10-09T23:40:37.988Z,50.97
2018-10-09T23:43:08.721Z,51.53
2018-10-09T23:45:41.644Z,44.73
2018-10-09T23:48:12.641Z,46.57
2018-10-09T23:50:43.859Z,54.57
2018-10-09T23:53:15.336Z,49.60
2018-10-09T23:55:46.241Z,50.00
2018-10-09T23:58:17.162Z,55.30
